Time;durP1;ratioP1;P1;durP2;ratioP2;P2;SDS_P1;SDS_P2;PMS_P1;PMS_P2;Temp;Humidity;BMP_temperature;BMP_pressure;BME280_temperature;BME280_humidity;BME280_pressure;Samples;Min_cycle;Max_cycle;Signal;HPM_P1;HPM_P2
2022/05/24 00:00:21;;;;;;;14.40;5.50;;;15.50;99.90;;;;;;4965464;28;20047;-71
2022/05/24 00:02:48;;;;;;;11.30;4.45;;;15.50;99.90;;;;;;4965695;28;20054;-70
2022/05/24 00:05:16;;;;;;;8.40;5.03;;;15.50;99.90;;;;;;4973116;28;20041;-71
2022/05/24 00:07:43;;;;;;;12.93;6.05;;;15.50;99.90;;;;;;4973279;28;20047;-71
2022/05/24 00:10:14;;;;;;;16.67;6.65;;;15.50;99.90;;;;;;4972333;28;20043;-72
2022/05/24 00:12:41;;;;;;;13.35;5.60;;;15.50;99.90;;;;;;4964991;28;20046;-71
2022/05/24 00:15:22;;;;;;;14.02;6.25;;;15.50;99.90;;;;;;4973300;28;20074;-72
2022/05/24 00:18:14;;;;;;;12.00;6.00;;;15.50;99.90;;;;;;4972998;28;20555;-71
2022/05/24 00:20:45;;;;;;;11.43;5.05;;;15.50;99.90;;;;;;4965977;28;20043;-72
2022/05/24 00:23:13;;;;;;;11.50;5.50;;;15.40;99.90;;;;;;4973165;28;20050;-70
2022/05/24 00:25:41;;;;;;;;;;;15.40;99.90;;;;;;4973386;28;20047;-71
2022/05/24 00:28:08;;;;;;;11.15;5.30;;;15.40;99.90;;;;;;4977225;28;19930;-71
2022/05/24 00:30:35;;;;;;;;;;;15.40;99.90;;;;;;4967729;28;20051;-70
2022/05/24 00:33:04;;;;;;;8.90;4.65;;;15.40;99.90;;;;;;4972687;28;19922;-70
2022/05/24 00:35:31;;;;;;;11.82;4.80;;;15.40;99.90;;;;;;4973050;28;20046;-72
2022/05/24 00:37:58;;;;;;;9.05;4.45;;;15.30;99.90;;;;;;4968765;28;20621;-71
2022/05/24 00:40:47;;;;;;;12.88;4.57;;;15.30;99.90;;;;;;4968066;28;20051;-72
2022/05/24 00:43:24;;;;;;;9.63;4.28;;;15.40;99.90;;;;;;4972790;28;20054;-73
2022/05/24 00:45:56;;;;;;;12.73;4.20;;;15.30;99.90;;;;;;4969585;28;20121;-71
2022/05/24 00:48:38;;;;;;;10.45;4.03;;;15.40;99.90;;;;;;4968343;28;20513;-71
2022/05/24 00:51:08;;;;;;;6.40;3.63;;;15.40;99.90;;;;;;4972597;28;20047;-71
2022/05/24 00:53:46;;;;;;;9.27;3.45;;;15.40;99.90;;;;;;4971799;28;20046;-71
2022/05/24 00:56:35;;;;;;;11.10;3.78;;;15.50;99.90;;;;;;4966845;28;20047;-71
2022/05/24 00:59:06;;;;;;;6.80;3.35;;;15.40;99.90;;;;;;4972874;28;20043;-72
2022/05/24 01:01:43;;;;;;;10.73;3.50;;;15.40;99.90;;;;;;4977404;28;20043;-73
2022/05/24 01:04:12;;;;;;;6.43;4.15;;;15.40;99.90;;;;;;4966420;28;20083;-70
2022/05/24 01:06:39;;;;;;;9.77;4.40;;;15.40;99.90;;;;;;4972398;28;20507;-71
2022/05/24 01:09:13;;;;;;;13.90;4.60;;;15.50;99.90;;;;;;4982221;28;20431;-72
2022/05/24 01:11:46;;;;;;;15.88;5.93;;;15.40;99.90;;;;;;4961111;28;20043;-72
2022/05/24 01:14:15;;;;;;;14.10;5.93;;;15.50;99.90;;;;;;4972132;28;20090;-72
2022/05/24 01:16:43;;;;;;;13.15;5.85;;;15.40;99.90;;;;;;4974032;28;20130;-72
2022/05/24 01:19:23;;;;;;;12.55;6.18;;;15.40;99.90;;;;;;4985306;28;20043;-71
2022/05/24 01:21:50;;;;;;;11.55;6.30;;;15.50;99.90;;;;;;4964068;28;20046;-72
2022/05/24 01:24:33;;;;;;;10.73;6.15;;;15.50;99.90;;;;;;4972440;28;20047;-71
2022/05/24 01:27:02;;;;;;;13.13;6.85;;;15.40;99.90;;;;;;4979636;28;20050;-72
2022/05/24 01:29:29;;;;;;;10.13;6.22;;;15.40;99.90;;;;;;4984310;28;20389;-72
2022/05/24 01:37:30;;;;;;;14.18;6.85;;;15.40;99.90;;;;;;4964360;28;20055;-72
2022/05/24 01:39:59;;;;;;;11.82;6.00;;;15.30;99.90;;;;;;4972063;28;20051;-71
2022/05/24 01:42:27;;;;;;;13.55;6.13;;;15.40;99.90;;;;;;4971784;28;20051;-71
2022/05/24 01:45:03;;;;;;;14.63;7.15;;;15.40;99.90;;;;;;4964148;28;20098;-72
2022/05/24 01:47:32;;;;;;;9.68;5.65;;;15.40;99.90;;;;;;4972494;28;20042;-72
2022/05/24 01:50:05;;;;;;;10.38;5.32;;;15.40;99.90;;;;;;4972365;28;20047;-71
2022/05/24 01:52:52;;;;;;;14.93;4.50;;;15.40;99.90;;;;;;4975268;28;20106;-71
2022/05/24 01:55:34;;;;;;;7.57;4.40;;;15.30;99.90;;;;;;4971131;28;20047;-72
2022/05/24 01:58:05;;;;;;;9.98;4.28;;;15.30;99.90;;;;;;4975759;28;20500;-72
2022/05/24 02:00:32;;;;;;;7.15;5.00;;;15.30;99.90;;;;;;4974905;28;20050;-71
2022/05/24 02:02:59;;;;;;;10.25;4.03;;;15.30;99.90;;;;;;4967811;28;20114;-72
2022/05/24 02:05:31;;;;;;;5.78;3.72;;;15.30;99.90;;;;;;4975731;28;20049;-71
2022/05/24 02:07:59;;;;;;;8.93;4.05;;;15.30;99.90;;;;;;4975744;28;20035;-71
2022/05/24 02:10:30;;;;;;;9.70;3.65;;;15.30;99.90;;;;;;4967210;28;20039;-72
2022/05/24 02:13:00;;;;;;;10.18;4.05;;;15.40;99.90;;;;;;4975390;28;20047;-72
2022/05/24 02:15:31;;;;;;;10.65;4.80;;;15.40;99.90;;;;;;4976120;28;20086;-71
2022/05/24 02:18:11;;;;;;;10.05;5.32;;;15.30;99.90;;;;;;4974871;28;20547;-72
2022/05/24 02:20:41;;;;;;;10.75;5.65;;;15.30;99.90;;;;;;4966940;28;20062;-72
2022/05/24 02:23:10;;;;;;;11.98;5.20;;;15.30;99.90;;;;;;4975341;28;20062;-72
2022/05/24 02:25:49;;;;;;;13.05;5.55;;;15.30;99.90;;;;;;4974670;28;20046;-72
2022/05/24 02:28:17;;;;;;;13.55;5.90;;;15.30;99.90;;;;;;4967263;28;20091;-71
2022/05/24 02:30:49;;;;;;;15.43;5.30;;;15.30;99.90;;;;;;4974948;28;20054;-71
2022/05/24 02:33:16;;;;;;;11.23;6.22;;;15.30;99.90;;;;;;4974775;28;20058;-71
2022/05/24 02:35:43;;;;;;;7.28;4.20;;;15.30;99.90;;;;;;4965181;28;20149;-71
2022/05/24 02:38:10;;;;;;;6.07;3.70;;;15.20;99.90;;;;;;4975166;28;20051;-71
2022/05/24 02:43:25;;;;;;;5.88;2.35;;;15.20;99.90;;;;;;4974510;28;20034;-72
2022/05/24 02:45:54;;;;;;;7.55;2.35;;;15.10;99.90;;;;;;4966891;28;20130;-71
2022/05/24 02:48:21;;;;;;;6.10;2.45;;;15.10;99.90;;;;;;4974968;28;20034;-71
2022/05/24 02:50:47;;;;;;;5.28;1.85;;;15.10;99.90;;;;;;4971889;28;20098;-71
2022/05/24 02:53:14;;;;;;;5.90;2.58;;;15.10;99.90;;;;;;4969225;28;20448;-72
2022/05/24 02:55:41;;;;;;;6.05;2.30;;;15.00;99.90;;;;;;4974880;28;20106;-72
2022/05/24 02:58:08;;;;;;;7.22;3.40;;;15.00;99.90;;;;;;4974881;28;20260;-72
2022/05/24 03:00:35;;;;;;;9.73;3.90;;;15.00;99.90;;;;;;4965608;28;20043;-72
2022/05/24 03:03:03;;;;;;;12.40;4.53;;;15.00;99.90;;;;;;4973385;28;20110;-71
2022/05/24 03:05:31;;;;;;;14.13;5.53;;;15.10;99.90;;;;;;4974691;28;20038;-71
2022/05/24 03:10:43;;;;;;;10.10;5.03;;;15.10;99.90;;;;;;4972267;28;20495;-72
2022/05/24 03:15:56;;;;;;;11.50;4.82;;;15.10;99.90;;;;;;4974175;28;20050;-72
2022/05/24 03:18:24;;;;;;;9.88;4.25;;;15.10;99.90;;;;;;4966535;28;20038;-72
2022/05/24 03:20:50;;;;;;;11.65;4.63;;;15.10;99.90;;;;;;4973910;28;20176;-72
2022/05/24 03:23:18;;;;;;;6.60;3.70;;;15.10;99.90;;;;;;4974391;28;20054;-72
2022/05/24 03:25:45;;;;;;;;;;;15.10;99.90;;;;;;4973895;28;20038;-72
2022/05/24 03:28:12;;;;;;;7.88;3.78;;;15.10;99.90;;;;;;4957083;28;19922;-72
2022/05/24 03:30:42;;;;;;;5.70;4.05;;;15.10;99.90;;;;;;4973881;28;20079;-72
2022/05/24 03:33:09;;;;;;;9.82;3.67;;;15.10;99.90;;;;;;4974319;28;20083;-72
2022/05/24 03:35:36;;;;;;;9.55;4.45;;;15.00;99.90;;;;;;4973584;28;20455;-72
2022/05/24 03:38:03;;;;;;;8.38;4.15;;;15.00;99.90;;;;;;4965855;28;20055;-72
2022/05/24 03:40:30;;;;;;;;;;;15.00;99.90;;;;;;4974195;28;20047;-72
2022/05/24 03:42:57;;;;;;;16.95;4.72;;;15.00;99.90;;;;;;4973879;28;20450;-72
2022/05/24 03:45:26;;;;;;;8.95;4.70;;;15.00;99.90;;;;;;4973427;28;20059;-72
2022/05/24 03:47:52;;;;;;;11.38;4.75;;;15.00;99.90;;;;;;4965923;28;20046;-71
2022/05/24 03:50:22;;;;;;;7.95;4.28;;;15.00;99.90;;;;;;4973516;28;20039;-71
2022/05/24 03:52:49;;;;;;;10.35;4.72;;;15.00;99.90;;;;;;4973786;28;20649;-71
2022/05/24 03:55:16;;;;;;;8.27;4.55;;;15.00;99.90;;;;;;4981166;28;20050;-71
2022/05/24 03:58:02;;;;;;;8.32;4.93;;;15.00;99.90;;;;;;4965628;28;20444;-70
2022/05/24 04:00:36;;;;;;;7.53;4.25;;;15.00;99.90;;;;;;4973342;28;20050;-70
2022/05/24 04:03:04;;;;;;;9.30;4.65;;;15.10;99.90;;;;;;4974962;28;20447;-71
2022/05/24 04:05:31;;;;;;;11.30;5.43;;;15.10;99.90;;;;;;4972336;28;20057;-71
2022/05/24 04:07:59;;;;;;;12.25;4.80;;;15.10;99.90;;;;;;4972803;28;20055;-71
2022/05/24 04:10:28;;;;;;;11.75;5.55;;;15.10;99.90;;;;;;4975251;28;20085;-71
2022/05/24 04:12:54;;;;;;;9.52;6.18;;;15.10;99.90;;;;;;5014989;23;20057;-63
2022/05/24 04:15:23;;;;;;;9.57;5.00;;;15.10;99.90;;;;;;5012789;28;20049;-62
2022/05/24 04:17:52;;;;;;;12.75;5.78;;;15.10;99.90;;;;;;5020991;28;20383;-63
2022/05/24 04:20:21;;;;;;;7.88;4.30;;;15.10;99.90;;;;;;5014664;28;20450;-63
2022/05/24 04:22:49;;;;;;;7.25;3.65;;;15.10;99.90;;;;;;5022238;28;20494;-63
2022/05/24 04:25:16;;;;;;;8.18;3.17;;;15.10;99.90;;;;;;5014732;28;20565;-63
2022/05/24 04:27:43;;;;;;;4.55;2.65;;;15.10;99.90;;;;;;5031821;28;20049;-63
2022/05/24 04:30:11;;;;;;;8.15;2.47;;;15.10;99.90;;;;;;5013447;28;20108;-63
2022/05/24 04:32:37;;;;;;;8.98;2.75;;;15.10;99.90;;;;;;5029015;28;20106;-63
2022/05/24 04:35:05;;;;;;;7.53;2.53;;;15.10;99.90;;;;;;5031772;28;20486;-63
2022/05/24 04:37:32;;;;;;;7.57;2.40;;;15.10;99.90;;;;;;5018982;28;20100;-63
2022/05/24 04:39:59;;;;;;;7.82;2.83;;;15.10;99.90;;;;;;4991659;28;20050;-63
2022/05/24 04:42:25;;;;;;;8.40;3.40;;;15.10;99.90;;;;;;4992121;28;20054;-63
2022/05/24 04:44:58;;;;;;;7.20;3.97;;;15.20;99.90;;;;;;5011253;28;20634;-63
2022/05/24 04:47:29;;;;;;;11.05;4.80;;;15.30;99.90;;;;;;5027129;28;20064;-62
2022/05/24 04:49:59;;;;;;;9.55;4.90;;;15.80;99.90;;;;;;5031138;28;20037;-63
2022/05/24 04:52:32;;;;;;;7.63;4.63;;;15.50;99.90;;;;;;5014765;28;20037;-63
2022/05/24 04:54:59;;;;;;;11.50;4.50;;;15.60;99.90;;;;;;5022703;28;20383;-63
2022/05/24 04:57:30;;;;;;;8.15;4.35;;;15.70;99.90;;;;;;5018401;28;20044;-63
2022/05/24 04:59:58;;;;;;;10.65;4.47;;;15.70;99.90;;;;;;5011061;28;20454;-63
2022/05/24 05:02:25;;;;;;;;;;;15.90;99.90;;;;;;5020996;28;20075;-63
2022/05/24 05:04:53;;;;;;;7.00;4.93;;;15.90;99.90;;;;;;5030567;28;19940;-63
2022/05/24 05:07:19;;;;;;;7.63;4.75;;;15.90;99.90;;;;;;5020212;28;20042;-63
2022/05/24 05:09:52;;;;;;;6.35;4.88;;;16.00;99.90;;;;;;5024341;28;20049;-63
2022/05/24 05:12:19;;;;;;;7.68;4.10;;;16.00;99.90;;;;;;5027756;28;20049;-63
2022/05/24 05:14:46;;;;;;;10.27;5.18;;;16.00;99.90;;;;;;5012549;28;20042;-63
2022/05/24 05:17:16;;;;;;;9.07;4.82;;;15.90;99.90;;;;;;5019235;28;20498;-63
2022/05/24 05:19:43;;;;;;;7.63;4.57;;;15.90;99.90;;;;;;5024376;28;20075;-63
2022/05/24 05:22:10;;;;;;;10.27;4.60;;;16.00;99.90;;;;;;5022436;28;20438;-63
2022/05/24 05:24:37;;;;;;;6.90;4.63;;;16.10;99.90;;;;;;5022788;28;20097;-63
2022/05/24 05:27:05;;;;;;;9.45;4.80;;;16.10;99.90;;;;;;5013845;28;20039;-63
2022/05/24 05:32:26;;;;;;;7.25;4.40;;;16.50;99.90;;;;;;5017490;28;20113;-62
2022/05/24 05:34:53;;;;;;;13.68;4.53;;;16.70;99.90;;;;;;5004155;28;20053;-63
2022/05/24 05:37:20;;;;;;;3.33;2.25;;;17.00;99.90;;;;;;5029694;28;20449;-63
2022/05/24 05:39:52;;;;;;;3.97;2.58;;;17.20;99.90;;;;;;5013929;28;20499;-62
2022/05/24 05:42:19;;;;;;;9.35;3.42;;;17.30;99.90;;;;;;5013677;28;20046;-62
2022/05/24 05:44:49;;;;;;;8.70;4.13;;;17.40;99.90;;;;;;5013918;28;20050;-63
2022/05/24 05:47:17;;;;;;;5.13;3.10;;;17.40;99.90;;;;;;5023872;28;20049;-62
2022/05/24 05:49:45;;;;;;;7.57;3.17;;;17.30;99.90;;;;;;5024491;28;20434;-63
2022/05/24 05:52:14;;;;;;;6.80;3.25;;;17.30;99.90;;;;;;5016415;28;20038;-63
2022/05/24 05:54:41;;;;;;;6.30;2.47;;;17.30;99.90;;;;;;5022740;28;20046;-63
2022/05/24 05:57:08;;;;;;;;;;;17.20;99.90;;;;;;5035210;28;20490;-63
2022/05/24 05:59:35;;;;;;;5.10;2.78;;;17.20;99.90;;;;;;5034388;28;19921;-63
2022/05/24 06:02:04;;;;;;;6.38;2.28;;;17.10;99.90;;;;;;5026903;28;20053;-63
2022/05/24 06:04:32;;;;;;;6.80;2.70;;;17.20;99.90;;;;;;5026246;28;20052;-63
2022/05/24 06:06:59;;;;;;;9.63;3.00;;;17.20;99.90;;;;;;5034566;28;20041;-63
2022/05/24 06:09:25;;;;;;;;;;;17.20;99.90;;;;;;5029804;28;20494;-63
2022/05/24 06:11:58;;;;;;;6.80;3.00;;;17.30;99.90;;;;;;5029709;28;19921;-63
2022/05/24 06:14:25;;;;;;;6.68;3.15;;;17.40;99.90;;;;;;5023658;28;20100;-63
2022/05/24 06:17:12;;;;;;;6.43;3.08;;;17.50;99.90;;;;;;5011077;28;20066;-63
2022/05/24 06:19:38;;;;;;;7.28;3.90;;;17.60;99.90;;;;;;5020691;28;20066;-63
2022/05/24 06:22:06;;;;;;;7.45;3.05;;;17.80;99.90;;;;;;5033832;28;20045;-63
2022/05/24 06:24:32;;;;;;;;;;;17.70;99.90;;;;;;5034615;28;20056;-63
2022/05/24 06:26:59;;;;;;;4.53;2.83;;;17.50;99.90;;;;;;5028775;28;19925;-63
2022/05/24 06:29:26;;;;;;;4.38;2.75;;;17.50;99.90;;;;;;5018574;28;20093;-63
2022/05/24 06:31:52;;;;;;;7.28;3.10;;;17.40;99.90;;;;;;5013955;28;20486;-63
2022/05/24 06:34:19;;;;;;;5.22;3.20;;;17.30;99.90;;;;;;5012919;28;20046;-63
2022/05/24 06:36:46;;;;;;;8.20;3.25;;;17.30;99.90;;;;;;5030004;28;20057;-63
2022/05/24 06:39:13;;;;;;;5.57;3.25;;;17.30;99.90;;;;;;5033895;28;20053;-63
2022/05/24 06:41:39;;;;;;;7.30;3.38;;;17.30;99.90;;;;;;5033470;28;20505;-63
2022/05/24 06:44:06;;;;;;;9.13;3.97;;;17.50;99.90;;;;;;5024417;28;20085;-63
2022/05/24 06:46:33;;;;;;;7.78;3.80;;;17.70;99.90;;;;;;5027159;28;20045;-63
2022/05/24 06:49:00;;;;;;;8.15;2.50;;;17.80;99.90;;;;;;5033518;28;20077;-63
2022/05/24 06:51:27;;;;;;;6.00;2.90;;;18.00;99.90;;;;;;5033341;28;20391;-63
2022/05/24 06:53:53;;;;;;;11.55;2.72;;;18.20;99.90;;;;;;5023181;28;20030;-63
2022/05/24 06:56:20;;;;;;;7.57;1.98;;;18.50;99.90;;;;;;5025193;28;20088;-63
2022/05/24 06:58:49;;;;;;;3.92;2.42;;;18.60;99.90;;;;;;5033571;28;20064;-63
2022/05/24 07:04:02;;;;;;;6.57;2.38;;;18.90;99.90;;;;;;5018396;28;20052;-63
2022/05/24 07:06:29;;;;;;;3.45;1.83;;;19.00;99.90;;;;;;5030105;28;20570;-63
2022/05/24 07:08:56;;;;;;;3.72;1.80;;;19.10;99.90;;;;;;5033391;28;20049;-63
2022/05/24 07:11:23;;;;;;;11.00;2.40;;;19.30;99.90;;;;;;5016356;28;20556;-63
2022/05/24 07:13:54;;;;;;;8.57;2.70;;;19.30;99.90;;;;;;5025026;28;20072;-64
2022/05/24 07:16:20;;;;;;;6.28;2.67;;;19.40;99.90;;;;;;5032298;28;20060;-64
2022/05/24 07:18:47;;;;;;;5.63;2.58;;;19.50;99.90;;;;;;5018725;28;20410;-64
2022/05/24 07:21:14;;;;;;;7.35;2.75;;;19.50;99.90;;;;;;5024231;28;20045;-64
2022/05/24 07:23:42;;;;;;;;;;;19.50;99.90;;;;;;5016388;28;20059;-64
2022/05/24 07:26:15;;;;;;;6.30;2.20;;;19.70;99.90;;;;;;5031707;28;19921;-64
2022/05/24 07:29:02;;;;;;;6.80;2.10;;;19.80;99.90;;;;;;4988728;28;20395;-64
2022/05/24 07:31:29;;;;;;;11.10;2.95;;;20.20;99.90;;;;;;5016515;28;20042;-64
2022/05/24 07:33:59;;;;;;;;;;;20.10;99.90;;;;;;5013365;28;20073;-64
2022/05/24 07:36:26;;;;;;;12.02;2.45;;;19.90;99.90;;;;;;5012277;28;19929;-64
2022/05/24 07:38:53;;;;;;;11.38;2.00;;;19.80;99.90;;;;;;5023947;28;20096;-64
2022/05/24 07:46:51;;;;;;;5.07;1.63;;;19.70;99.90;;;;;;5020876;28;20042;-64
2022/05/24 07:49:17;;;;;;;5.50;1.63;;;19.70;99.90;;;;;;5026400;28;20042;-64
2022/05/24 07:51:44;;;;;;;4.10;2.00;;;19.70;99.90;;;;;;5031983;28;20049;-63
2022/05/24 07:54:11;;;;;;;5.55;1.75;;;19.60;99.90;;;;;;5027625;28;20088;-63
2022/05/24 07:56:38;;;;;;;4.40;1.67;;;19.50;99.90;;;;;;5020792;28;20058;-64
2022/05/24 07:59:05;;;;;;;5.22;2.05;;;19.50;99.90;;;;;;5012473;28;20054;-64
2022/05/24 08:01:31;;;;;;;4.30;1.92;;;19.50;99.90;;;;;;5011975;28;20109;-63
2022/05/24 08:03:58;;;;;;;6.55;2.65;;;19.30;99.90;;;;;;5018925;28;20038;-63
2022/05/24 08:06:25;;;;;;;10.40;2.35;;;19.30;99.90;;;;;;5027410;28;20471;-64
2022/05/24 08:08:52;;;;;;;7.10;1.50;;;19.30;99.90;;;;;;5032153;28;20044;-64
2022/05/24 08:11:19;;;;;;;9.35;2.03;;;19.20;99.90;;;;;;5031508;28;20486;-63
2022/05/24 08:13:46;;;;;;;6.10;2.00;;;19.10;99.90;;;;;;5014758;28;20100;-64
2022/05/24 08:16:13;;;;;;;;;;;18.90;99.90;;;;;;5026355;28;20045;-63
2022/05/24 08:18:40;;;;;;;10.32;1.88;;;18.90;99.90;;;;;;5031684;28;19921;-63
2022/05/24 08:21:07;;;;;;;4.93;1.88;;;18.70;99.90;;;;;;5031159;28;20064;-63
2022/05/24 08:23:34;;;;;;;10.40;1.83;;;18.70;99.90;;;;;;5020511;28;20064;-63
2022/05/24 08:26:01;;;;;;;5.00;1.65;;;18.90;99.90;;;;;;5031860;28;20498;-63
2022/05/24 08:28:28;;;;;;;9.02;1.42;;;18.90;99.90;;;;;;5031764;28;20490;-62
2022/05/24 08:30:54;;;;;;;3.92;1.70;;;18.90;99.90;;;;;;5023736;28;20855;-63
2022/05/24 08:33:24;;;;;;;6.15;1.10;;;18.90;99.90;;;;;;5023117;28;20045;-63
2022/05/24 08:35:51;;;;;;;4.97;1.38;;;18.80;99.90;;;;;;5031339;28;20045;-63
2022/05/24 08:38:18;;;;;;;2.38;1.60;;;18.80;99.90;;;;;;5031658;28;20052;-63
2022/05/24 08:40:48;;;;;;;2.42;1.45;;;18.90;99.90;;;;;;5014830;28;20058;-63
2022/05/24 08:43:37;;;;;;;7.10;1.27;;;18.90;99.90;;;;;;5023194;28;20045;-63
2022/05/24 08:49:05;;;;;;;2.03;1.40;;;18.70;99.90;;;;;;5024223;28;20045;-63
2022/05/24 08:51:44;;;;;;;6.57;1.40;;;18.60;99.90;;;;;;5022709;28;20045;-63
2022/05/24 08:54:21;;;;;;;8.25;1.58;;;18.50;99.90;;;;;;5031441;28;20081;-63
2022/05/24 08:56:58;;;;;;;3.00;1.50;;;18.40;99.90;;;;;;5027854;28;20113;-63
2022/05/24 08:59:42;;;;;;;4.93;1.45;;;18.20;99.90;;;;;;5019900;28;20758;-64
2022/05/24 09:02:09;;;;;;;8.07;1.92;;;18.00;99.90;;;;;;4991134;28;20098;-63
2022/05/24 09:04:36;;;;;;;7.65;1.50;;;17.80;99.90;;;;;;4992672;28;20038;-63
2022/05/24 09:07:05;;;;;;;6.15;1.70;;;17.70;99.90;;;;;;5022744;28;20037;-63
2022/05/24 09:10:03;;;;;;;5.15;1.77;;;17.60;99.90;;;;;;5031239;28;20041;-63
2022/05/24 09:12:54;;;;;;;7.23;1.87;;;17.60;99.90;;;;;;5018964;28;20053;-63
2022/05/24 09:15:31;;;;;;;5.25;2.33;;;17.40;99.90;;;;;;5014126;28;20049;-63
2022/05/24 09:18:30;;;;;;;7.13;2.20;;;17.30;99.90;;;;;;5011495;28;20050;-63
2022/05/24 09:20:56;;;;;;;5.40;1.83;;;17.30;99.90;;;;;;5005058;28;20502;-63
2022/05/24 09:23:46;;;;;;;4.63;1.83;;;17.30;99.90;;;;;;5007438;28;20077;-63
2022/05/24 09:26:20;;;;;;;6.03;2.00;;;17.30;99.90;;;;;;5005003;28;20043;-63
2022/05/24 09:28:48;;;;;;;9.30;1.85;;;17.30;99.90;;;;;;4992621;28;20125;-63
2022/05/24 09:31:41;;;;;;;6.30;2.03;;;17.20;99.90;;;;;;5002971;28;20034;-63
2022/05/24 09:34:17;;;;;;;5.53;2.15;;;17.00;99.90;;;;;;5017564;28;20041;-63
2022/05/24 09:37:02;;;;;;;7.82;2.72;;;16.90;99.90;;;;;;5031058;28;20494;-62
2022/05/24 09:39:35;;;;;;;7.65;2.35;;;16.80;99.90;;;;;;5025051;28;20081;-63
2022/05/24 09:42:05;;;;;;;7.93;2.13;;;16.60;99.90;;;;;;5015394;28;20085;-62
2022/05/24 09:44:48;;;;;;;7.63;2.00;;;16.50;99.90;;;;;;5030853;28;20041;-62
2022/05/24 09:47:41;;;;;;;9.02;2.33;;;16.40;99.90;;;;;;5025097;28;20046;-62
2022/05/24 09:50:31;;;;;;;4.80;2.03;;;16.30;99.90;;;;;;5012313;28;20097;-62
2022/05/24 09:53:16;;;;;;;5.07;2.22;;;16.20;99.90;;;;;;4991537;28;20035;-62
2022/05/24 09:55:45;;;;;;;7.72;2.75;;;16.20;99.90;;;;;;4991547;28;20102;-63
2022/05/24 09:58:18;;;;;;;5.80;2.42;;;16.20;99.90;;;;;;5002332;28;20042;-63
2022/05/24 10:01:09;;;;;;;5.55;2.70;;;16.10;99.90;;;;;;5022311;28;20088;-63
2022/05/24 10:03:44;;;;;;;4.95;2.00;;;16.00;99.90;;;;;;5030662;28;20045;-63
2022/05/24 10:06:30;;;;;;;3.90;2.05;;;15.90;99.90;;;;;;5030976;28;20069;-63
2022/05/24 10:09:09;;;;;;;3.55;2.50;;;15.80;99.90;;;;;;5011203;28;20042;-63
2022/05/24 10:12:26;;;;;;;6.75;2.47;;;15.80;99.90;;;;;;5029920;28;20041;-78
2022/05/24 10:15:12;;;;;;;10.43;2.95;;;15.70;99.90;;;;;;4992295;28;20057;-66
2022/05/24 10:18:05;;;;;;;5.55;2.50;;;15.70;99.90;;;;;;4994677;28;20050;-66
2022/05/24 10:20:56;;;;;;;4.78;2.40;;;15.60;99.90;;;;;;4972061;28;20046;-65
2022/05/24 10:23:44;;;;;;;4.22;2.38;;;15.60;99.90;;;;;;4994925;28;20050;-66
2022/05/24 10:26:56;;;;;;;6.32;2.40;;;15.50;99.90;;;;;;5014414;28;20050;-66
2022/05/24 10:29:49;;;;;;;5.53;1.55;;;15.20;99.90;;;;;;4915466;29;20064;-66
2022/05/24 10:38:38;;;;;;;;;;;14.70;99.90;;;;;;4971292;28;20054;-65
2022/05/24 10:41:24;;;;;;;3.60;1.00;;;14.60;99.90;;;;;;4993499;28;19972;-65
2022/05/24 10:43:56;;;;;;;4.40;0.95;;;14.50;99.90;;;;;;4995119;28;20054;-65
2022/05/24 10:46:34;;;;;;;7.38;0.85;;;14.40;99.90;;;;;;5009369;28;20050;-65
2022/05/24 10:49:22;;;;;;;3.22;1.13;;;14.40;99.90;;;;;;5013750;28;20045;-66
2022/05/24 10:51:56;;;;;;;6.13;1.08;;;14.40;99.90;;;;;;4984270;28;20053;-65
2022/05/24 10:54:36;;;;;;;3.22;1.00;;;14.40;99.90;;;;;;4994315;28;20094;-66
2022/05/24 10:57:26;;;;;;;1.80;1.00;;;14.30;99.90;;;;;;4994203;28;20054;-66
2022/05/24 11:00:12;;;;;;;2.47;0.80;;;14.40;99.90;;;;;;4998700;28;20098;-66
2022/05/24 11:03:00;;;;;;;5.32;1.10;;;14.50;99.90;;;;;;5011298;28;20038;-66
2022/05/24 11:05:32;;;;;;;1.43;0.80;;;14.60;99.90;;;;;;5013642;28;20049;-66
2022/05/24 11:08:11;;;;;;;2.30;0.50;;;14.60;99.90;;;;;;5000776;28;20451;-66
2022/05/24 11:10:41;;;;;;;1.92;0.73;;;14.60;99.90;;;;;;5010320;28;20105;-66
2022/05/24 11:13:14;;;;;;;1.88;0.77;;;14.70;99.90;;;;;;5013369;28;20482;-66
2022/05/24 11:15:47;;;;;;;2.15;0.60;;;14.60;99.90;;;;;;4997535;28;20444;-66
2022/05/24 11:18:18;;;;;;;3.05;0.50;;;14.60;99.90;;;;;;5005126;28;20482;-66
2022/05/24 11:21:01;;;;;;;5.18;0.55;;;14.60;99.90;;;;;;5013076;28;20038;-66
2022/05/24 11:23:37;;;;;;;0.28;0.28;;;14.70;99.90;;;;;;5003242;28;20038;-66
2022/05/24 11:26:12;;;;;;;0.82;0.60;;;14.70;99.90;;;;;;5001759;28;20042;-66
2022/05/24 11:28:51;;;;;;;1.50;0.40;;;14.70;99.90;;;;;;4993596;28;20074;-66
2022/05/24 11:31:34;;;;;;;0.95;0.30;;;14.70;99.90;;;;;;4987831;28;20098;-66
2022/05/24 11:34:09;;;;;;;2.97;0.43;;;14.70;99.90;;;;;;4994205;28;20388;-66
2022/05/24 11:36:42;;;;;;;2.33;0.68;;;14.80;99.90;;;;;;4993491;28;20098;-66
2022/05/24 11:39:17;;;;;;;1.90;0.30;;;15.00;99.90;;;;;;4995573;28;20042;-66
2022/05/24 11:41:44;;;;;;;0.68;0.50;;;15.00;99.90;;;;;;5004296;28;20744;-66
2022/05/24 11:44:34;;;;;;;1.00;0.45;;;15.10;99.90;;;;;;5012714;28;20474;-66
2022/05/24 11:47:01;;;;;;;4.47;0.47;;;15.10;99.90;;;;;;5007088;28;20049;-66
2022/05/24 11:49:28;;;;;;;1.13;0.50;;;15.00;99.90;;;;;;5004536;28;20038;-66
2022/05/24 11:51:59;;;;;;;1.58;0.68;;;14.80;99.90;;;;;;5012386;28;20046;-66
2022/05/24 11:54:27;;;;;;;5.50;0.60;;;14.90;99.90;;;;;;5012732;28;20561;-66
2022/05/24 11:56:54;;;;;;;1.70;0.65;;;14.90;99.90;;;;;;5000352;28;20050;-66
2022/05/24 11:59:39;;;;;;;2.28;0.73;;;15.00;99.90;;;;;;5007639;28;20081;-66
2022/05/24 12:02:22;;;;;;;1.92;0.80;;;15.10;99.90;;;;;;5012057;28;20045;-66
2022/05/24 12:08:05;;;;;;;2.35;0.82;;;15.40;99.90;;;;;;5004349;28;20081;-66
2022/05/24 12:10:41;;;;;;;2.08;0.70;;;15.50;99.90;;;;;;5011894;28;20046;-66
2022/05/24 12:13:32;;;;;;;1.40;0.70;;;15.40;99.90;;;;;;5007940;28;20050;-66
2022/05/24 12:16:03;;;;;;;2.65;0.70;;;15.40;99.90;;;;;;5000854;28;20034;-66
2022/05/24 12:18:54;;;;;;;2.05;0.88;;;15.40;99.90;;;;;;4992744;28;20046;-66
2022/05/24 12:21:42;;;;;;;0.65;0.60;;;15.50;99.90;;;;;;4988432;28;20046;-66
2022/05/24 12:24:36;;;;;;;3.83;0.73;;;15.70;99.90;;;;;;4994060;28;20049;-66
2022/05/24 12:27:35;;;;;;;1.65;0.70;;;15.80;99.90;;;;;;4992476;28;20061;-66
2022/05/24 12:30:23;;;;;;;4.35;0.60;;;15.80;99.90;;;;;;4991909;28;20098;-66
2022/05/24 12:32:52;;;;;;;2.00;0.70;;;15.90;99.90;;;;;;5002767;28;20046;-66
2022/05/24 12:35:20;;;;;;;4.35;0.70;;;15.80;99.90;;;;;;5011672;28;20089;-66
2022/05/24 12:37:56;;;;;;;1.08;0.60;;;15.70;99.90;;;;;;5012052;28;20038;-66
2022/05/24 12:40:27;;;;;;;2.55;0.70;;;15.70;99.90;;;;;;5008094;28;20050;-66
2022/05/24 12:42:57;;;;;;;4.57;0.82;;;15.80;99.90;;;;;;5003291;28;20562;-66
2022/05/24 12:45:41;;;;;;;2.90;0.70;;;15.80;99.90;;;;;;5011879;28;20491;-66
2022/05/24 12:48:34;;;;;;;1.80;0.50;;;15.80;99.90;;;;;;5011927;28;20494;-66
2022/05/24 12:51:04;;;;;;;2.63;0.60;;;15.90;99.90;;;;;;4992448;28;20074;-66
2022/05/24 12:53:32;;;;;;;3.10;0.80;;;15.90;99.90;;;;;;4992179;28;20053;-66
2022/05/24 12:56:16;;;;;;;3.25;0.90;;;15.90;99.90;;;;;;4990738;28;20109;-66
2022/05/24 12:58:46;;;;;;;3.88;0.88;;;15.90;99.90;;;;;;5001576;28;20050;-66
2022/05/24 13:01:28;;;;;;;1.77;0.80;;;15.90;99.90;;;;;;5011143;28;20038;-66
2022/05/24 13:03:57;;;;;;;1.52;0.70;;;15.80;99.90;;;;;;5011760;28;20052;-66
2022/05/24 13:06:38;;;;;;;4.60;1.08;;;15.80;99.90;;;;;;4984150;28;20053;-66
2022/05/24 13:09:26;;;;;;;2.83;0.98;;;15.80;99.90;;;;;;5004471;28;20049;-66
2022/05/24 13:12:04;;;;;;;4.85;0.80;;;15.80;99.90;;;;;;5011164;28;20046;-66
2022/05/24 13:14:45;;;;;;;1.15;0.63;;;15.80;99.90;;;;;;4997460;28;20053;-66
2022/05/24 13:17:17;;;;;;;1.85;0.70;;;15.80;99.90;;;;;;4972702;28;20094;-66
2022/05/24 13:19:57;;;;;;;3.72;0.75;;;15.80;99.90;;;;;;4972633;28;20402;-66
2022/05/24 13:22:38;;;;;;;1.85;0.60;;;15.90;99.90;;;;;;4985994;28;20041;-66
2022/05/24 13:25:15;;;;;;;8.25;0.90;;;16.10;99.90;;;;;;4997152;28;20042;-66
2022/05/24 13:27:58;;;;;;;6.07;1.15;;;16.00;99.90;;;;;;5011446;28;20046;-66
2022/05/24 13:33:46;;;;;;;5.10;0.82;;;16.10;99.90;;;;;;5004035;28;20100;-66
2022/05/24 13:36:15;;;;;;;2.92;1.20;;;16.10;99.90;;;;;;5011597;28;20094;-66
2022/05/24 13:38:43;;;;;;;2.30;0.63;;;16.10;99.90;;;;;;5002700;28;20066;-66
2022/05/24 13:41:12;;;;;;;6.28;0.82;;;16.00;99.90;;;;;;5002872;28;20537;-66
2022/05/24 13:43:42;;;;;;;2.33;0.77;;;16.00;99.90;;;;;;5010932;28;20557;-66
2022/05/24 13:46:12;;;;;;;2.20;0.80;;;15.90;99.90;;;;;;5008748;28;20041;-66
2022/05/24 13:48:50;;;;;;;2.72;1.15;;;15.80;99.90;;;;;;5007097;28;20426;-66
2022/05/24 13:51:18;;;;;;;;;;;15.80;99.90;;;;;;5015537;28;20041;-66
2022/05/24 13:53:46;;;;;;;6.60;1.02;;;15.90;99.90;;;;;;5015067;28;19988;-66
2022/05/24 13:56:27;;;;;;;3.53;0.70;;;15.90;99.90;;;;;;5007211;28;20042;-66